sensor_id;sensor_type;location;lat;lon;timestamp;pressure;altitude;pressure_sealevel;temperature;humidity
33554;BME280;19885;42.208;24.952;2023-02-20T00:00:41;99984.00;;;13.20;57.71
33554;BME280;19885;42.208;24.952;2023-02-20T00:03:07;99955.25;;;13.03;58.02
33554;BME280;19885;42.208;24.952;2023-02-20T00:05:33;99990.13;;;13.16;57.90
33554;BME280;19885;42.208;24.952;2023-02-20T00:07:59;99984.91;;;13.13;58.10
33554;BME280;19885;42.208;24.952;2023-02-20T00:10:24;99991.00;;;13.12;57.45
33554;BME280;19885;42.208;24.952;2023-02-20T00:12:51;99986.66;;;13.09;57.13
33554;BME280;19885;42.208;24.952;2023-02-20T00:15:18;99983.13;;;13.03;57.67
33554;BME280;19885;42.208;24.952;2023-02-20T00:17:44;99985.75;;;12.95;57.94
33554;BME280;19885;42.208;24.952;2023-02-20T00:20:17;99991.00;;;12.94;58.13
33554;BME280;19885;42.208;24.952;2023-02-20T00:22:43;99977.06;;;12.78;58.68
33554;BME280;19885;42.208;24.952;2023-02-20T00:25:08;99983.16;;;12.78;58.60
33554;BME280;19885;42.208;24.952;2023-02-20T00:27:34;99986.63;;;12.74;59.05
33554;BME280;19885;42.208;24.952;2023-02-20T00:29:59;99985.78;;;12.75;58.89
33554;BME280;19885;42.208;24.952;2023-02-20T00:32:25;99986.66;;;12.80;58.65
33554;BME280;19885;42.208;24.952;2023-02-20T00:34:50;99988.38;;;12.84;57.81
33554;BME280;19885;42.208;24.952;2023-02-20T00:37:16;99986.63;;;12.94;57.88
33554;BME280;19885;42.208;24.952;2023-02-20T00:39:41;99977.94;;;12.97;57.42
33554;BME280;19885;42.208;24.952;2023-02-20T00:42:07;99982.28;;;13.01;57.28
33554;BME280;19885;42.208;24.952;2023-02-20T00:44:32;99982.28;;;13.04;57.22
33554;BME280;19885;42.208;24.952;2023-02-20T00:46:57;99985.75;;;13.09;57.23
33554;BME280;19885;42.208;24.952;2023-02-20T00:49:23;99978.81;;;13.08;57.17
33554;BME280;19885;42.208;24.952;2023-02-20T00:51:49;99977.06;;;13.10;56.93
33554;BME280;19885;42.208;24.952;2023-02-20T00:54:14;99971.81;;;13.13;56.71
33554;BME280;19885;42.208;24.952;2023-02-20T00:56:40;99984.00;;;13.20;56.59
33554;BME280;19885;42.208;24.952;2023-02-20T00:59:05;99929.97;;;12.88;56.43
33554;BME280;19885;42.208;24.952;2023-02-20T01:01:31;99982.25;;;13.29;56.06
33554;BME280;19885;42.208;24.952;2023-02-20T01:03:56;99993.59;;;13.28;55.96
33554;BME280;19885;42.208;24.952;2023-02-20T01:06:22;99992.72;;;13.25;56.07
33554;BME280;19885;42.208;24.952;2023-02-20T01:08:47;99942.16;;;12.99;55.77
33554;BME280;19885;42.208;24.952;2023-02-20T01:11:12;99986.59;;;13.24;56.15
33554;BME280;19885;42.208;24.952;2023-02-20T01:13:38;99991.88;;;13.21;56.15
33554;BME280;19885;42.208;24.952;2023-02-20T01:16:04;99977.91;;;13.09;55.88
33554;BME280;19885;42.208;24.952;2023-02-20T01:18:30;99922.16;;;12.81;55.64
33554;BME280;19885;42.208;24.952;2023-02-20T01:20:56;99987.50;;;13.16;55.82
33554;BME280;19885;42.208;24.952;2023-02-20T01:23:21;99982.28;;;13.19;55.60
33554;BME280;19885;42.208;24.952;2023-02-20T01:25:47;99975.31;;;13.12;55.96
33554;BME280;19885;42.208;24.952;2023-02-20T01:28:12;99977.06;;;13.07;56.06
33554;BME280;19885;42.208;24.952;2023-02-20T01:30:38;99967.44;;;13.04;55.97
33554;BME280;19885;42.208;24.952;2023-02-20T01:33:03;99971.81;;;13.04;55.94
33554;BME280;19885;42.208;24.952;2023-02-20T01:35:28;99970.06;;;13.03;56.12
33554;BME280;19885;42.208;24.952;2023-02-20T01:37:57;99972.66;;;13.04;55.85
33554;BME280;19885;42.208;24.952;2023-02-20T01:40:24;99953.50;;;12.98;55.52
33554;BME280;19885;42.208;24.952;2023-02-20T01:42:50;99990.97;;;13.18;55.29
33554;BME280;19885;42.208;24.952;2023-02-20T01:47:51;99991.88;;;13.12;55.24
33554;BME280;19885;42.208;24.952;2023-02-20T01:50:19;100001.47;;;13.16;55.20
33554;BME280;19885;42.208;24.952;2023-02-20T01:52:50;100006.72;;;13.12;55.41
33554;BME280;19885;42.208;24.952;2023-02-20T01:55:24;100002.34;;;13.12;55.29
33554;BME280;19885;42.208;24.952;2023-02-20T01:57:57;100014.56;;;13.10;55.19
33554;BME280;19885;42.208;24.952;2023-02-20T02:00:25;99996.25;;;12.97;55.62
33554;BME280;19885;42.208;24.952;2023-02-20T02:03:13;100018.94;;;13.05;55.36
33554;BME280;19885;42.208;24.952;2023-02-20T02:05:43;100024.97;;;13.04;55.16
33554;BME280;19885;42.208;24.952;2023-02-20T02:08:13;100016.28;;;12.93;55.61
33554;BME280;19885;42.208;24.952;2023-02-20T02:10:49;100013.66;;;13.01;55.70
33554;BME280;19885;42.208;24.952;2023-02-20T02:13:17;100018.91;;;13.01;55.37
33554;BME280;19885;42.208;24.952;2023-02-20T02:15:42;100015.41;;;12.96;55.11
33554;BME280;19885;42.208;24.952;2023-02-20T02:26:18;100020.63;;;13.02;55.00
33554;BME280;19885;42.208;24.952;2023-02-20T02:37:44;100024.13;;;12.88;55.31
33554;BME280;19885;42.208;24.952;2023-02-20T02:40:46;100034.59;;;12.85;55.32
33554;BME280;19885;42.208;24.952;2023-02-20T02:45:55;100048.53;;;12.81;55.59
33554;BME280;19885;42.208;24.952;2023-02-20T02:48:27;100037.22;;;12.73;55.79
33554;BME280;19885;42.208;24.952;2023-02-20T02:51:01;99967.47;;;12.29;55.83
33554;BME280;19885;42.208;24.952;2023-02-20T02:53:29;100032.81;;;12.57;55.76
33554;BME280;19885;42.208;24.952;2023-02-20T02:55:55;100055.50;;;12.61;56.26
33554;BME280;19885;42.208;24.952;2023-02-20T02:58:20;100057.22;;;12.56;56.37
33554;BME280;19885;42.208;24.952;2023-02-20T03:00:47;100058.97;;;12.51;56.75
33554;BME280;19885;42.208;24.952;2023-02-20T03:03:26;100057.19;;;12.47;57.15
33554;BME280;19885;42.208;24.952;2023-02-20T03:06:05;100060.72;;;12.45;57.28
33554;BME280;19885;42.208;24.952;2023-02-20T03:11:15;100030.13;;;12.18;57.30
33554;BME280;19885;42.208;24.952;2023-02-20T03:13:44;100078.97;;;12.42;57.27
33554;BME280;19885;42.208;24.952;2023-02-20T03:17:08;100078.09;;;12.35;57.46
33554;BME280;19885;42.208;24.952;2023-02-20T03:19:51;100092.91;;;12.38;57.65
33554;BME280;19885;42.208;24.952;2023-02-20T03:22:23;100090.31;;;12.42;57.82
33554;BME280;19885;42.208;24.952;2023-02-20T03:24:51;100020.50;;;11.99;57.76
33554;BME280;19885;42.208;24.952;2023-02-20T03:32:38;100093.72;;;12.23;58.78
33554;BME280;19885;42.208;24.952;2023-02-20T03:35:24;100102.47;;;12.28;58.62
33554;BME280;19885;42.208;24.952;2023-02-20T03:38:09;100099.84;;;12.30;58.95
33554;BME280;19885;42.208;24.952;2023-02-20T03:40:55;100090.22;;;12.16;59.12
33554;BME280;19885;42.208;24.952;2023-02-20T03:43:42;100098.94;;;12.17;59.09
33554;BME280;19885;42.208;24.952;2023-02-20T03:46:14;100109.38;;;12.18;59.41
33554;BME280;19885;42.208;24.952;2023-02-20T03:48:47;100116.38;;;12.21;59.25
33554;BME280;19885;42.208;24.952;2023-02-20T03:51:14;100115.44;;;12.11;59.73
33554;BME280;19885;42.208;24.952;2023-02-20T03:53:41;100111.06;;;12.04;59.73
33554;BME280;19885;42.208;24.952;2023-02-20T03:56:10;100110.19;;;12.02;60.19
33554;BME280;19885;42.208;24.952;2023-02-20T03:58:39;100117.97;;;11.92;60.57
33554;BME280;19885;42.208;24.952;2023-02-20T04:01:07;100130.16;;;11.96;60.36
33554;BME280;19885;42.208;24.952;2023-02-20T04:03:37;100130.13;;;11.87;60.66
33554;BME280;19885;42.208;24.952;2023-02-20T04:06:06;100064.59;;;11.46;60.96
33554;BME280;19885;42.208;24.952;2023-02-20T04:08:37;100137.97;;;11.90;61.02
33554;BME280;19885;42.208;24.952;2023-02-20T04:11:14;100141.47;;;11.95;60.88
33554;BME280;19885;42.208;24.952;2023-02-20T04:13:43;100131.84;;;11.85;61.47
33554;BME280;19885;42.208;24.952;2023-02-20T04:16:12;100060.22;;;11.43;60.82
33554;BME280;19885;42.208;24.952;2023-02-20T04:18:38;100123.97;;;11.76;61.55
33554;BME280;19885;42.208;24.952;2023-02-20T04:21:08;100129.22;;;11.80;61.25
33554;BME280;19885;42.208;24.952;2023-02-20T04:23:39;100125.72;;;11.81;61.61
33554;BME280;19885;42.208;24.952;2023-02-20T04:26:09;100115.25;;;11.75;61.74
33554;BME280;19885;42.208;24.952;2023-02-20T04:28:37;100113.56;;;11.80;61.72
33554;BME280;19885;42.208;24.952;2023-02-20T04:31:03;100125.69;;;11.77;62.33
33554;BME280;19885;42.208;24.952;2023-02-20T04:33:29;100106.53;;;11.69;62.65
33554;BME280;19885;42.208;24.952;2023-02-20T04:35:54;100101.28;;;11.70;62.70
33554;BME280;19885;42.208;24.952;2023-02-20T04:38:23;100122.25;;;11.78;62.66
33554;BME280;19885;42.208;24.952;2023-02-20T04:40:48;100127.50;;;11.81;62.54
33554;BME280;19885;42.208;24.952;2023-02-20T04:43:15;100041.94;;;11.37;62.33
33554;BME280;19885;42.208;24.952;2023-02-20T04:45:40;100094.34;;;11.69;61.89
33554;BME280;19885;42.208;24.952;2023-02-20T04:48:06;100105.75;;;11.85;61.62
33554;BME280;19885;42.208;24.952;2023-02-20T04:50:32;100063.72;;;11.48;61.69
33554;BME280;19885;42.208;24.952;2023-02-20T04:52:59;100131.84;;;11.79;61.55
33554;BME280;19885;42.208;24.952;2023-02-20T04:55:25;100140.53;;;11.84;61.32
33554;BME280;19885;42.208;24.952;2023-02-20T04:57:52;100128.31;;;11.77;61.91
33554;BME280;19885;42.208;24.952;2023-02-20T05:00:23;100136.16;;;11.75;61.76
33554;BME280;19885;42.208;24.952;2023-02-20T05:02:49;100145.63;;;11.66;61.89
33554;BME280;19885;42.208;24.952;2023-02-20T05:05:22;100150.91;;;11.69;61.91
33554;BME280;19885;42.208;24.952;2023-02-20T05:07:48;100139.44;;;11.52;62.48
33554;BME280;19885;42.208;24.952;2023-02-20T05:10:18;100096.47;;;11.07;62.24
33554;BME280;19885;42.208;24.952;2023-02-20T05:12:44;100099.97;;;11.09;62.14
33554;BME280;19885;42.208;24.952;2023-02-20T05:15:10;100140.13;;;11.29;61.27
33554;BME280;19885;42.208;24.952;2023-02-20T05:17:35;100150.63;;;11.38;61.49
33554;BME280;19885;42.208;24.952;2023-02-20T05:20:02;100171.56;;;11.44;61.49
33554;BME280;19885;42.208;24.952;2023-02-20T05:22:27;100147.13;;;11.36;61.07
33554;BME280;19885;42.208;24.952;2023-02-20T05:24:53;100185.47;;;11.43;60.89
33554;BME280;19885;42.208;24.952;2023-02-20T05:27:20;100187.22;;;11.44;60.66
33554;BME280;19885;42.208;24.952;2023-02-20T05:29:48;100192.34;;;11.32;61.57
33554;BME280;19885;42.208;24.952;2023-02-20T05:32:15;100188.03;;;11.39;61.31
33554;BME280;19885;42.208;24.952;2023-02-20T05:34:42;100206.31;;;11.37;61.16
33554;BME280;19885;42.208;24.952;2023-02-20T05:37:09;100132.88;;;10.95;61.24
33554;BME280;19885;42.208;24.952;2023-02-20T05:39:35;100191.41;;;11.26;60.68
33554;BME280;19885;42.208;24.952;2023-02-20T05:42:00;100197.63;;;11.41;60.92
33554;BME280;19885;42.208;24.952;2023-02-20T05:44:25;100139.84;;;10.96;60.64
33554;BME280;19885;42.208;24.952;2023-02-20T05:46:51;100180.09;;;11.25;60.26
33554;BME280;19885;42.208;24.952;2023-02-20T05:49:18;100215.94;;;11.47;60.17
33554;BME280;19885;42.208;24.952;2023-02-20T05:51:44;100223.00;;;11.59;60.66
33554;BME280;19885;42.208;24.952;2023-02-20T05:54:09;100236.97;;;11.64;60.32
33554;BME280;19885;42.208;24.952;2023-02-20T05:56:35;100235.31;;;11.71;60.23
33554;BME280;19885;42.208;24.952;2023-02-20T05:59:00;100248.44;;;11.78;60.34
33554;BME280;19885;42.208;24.952;2023-02-20T06:01:30;100194.19;;;11.42;59.50
33554;BME280;19885;42.208;24.952;2023-02-20T06:03:56;100259.81;;;11.86;59.40
33554;BME280;19885;42.208;24.952;2023-02-20T06:06:22;100258.97;;;11.89;59.33
33554;BME280;19885;42.208;24.952;2023-02-20T06:08:47;100265.91;;;11.87;59.83
33554;BME280;19885;42.208;24.952;2023-02-20T06:11:13;100252.84;;;11.85;59.72
33554;BME280;19885;42.208;24.952;2023-02-20T06:13:40;100257.22;;;11.91;59.65
33554;BME280;19885;42.208;24.952;2023-02-20T06:16:06;100257.34;;;12.03;59.17
33554;BME280;19885;42.208;24.952;2023-02-20T06:18:32;100221.56;;;11.91;58.84
33554;BME280;19885;42.208;24.952;2023-02-20T06:20:57;100199.72;;;11.79;58.88
33554;BME280;19885;42.208;24.952;2023-02-20T06:23:23;100261.72;;;12.08;58.39
33554;BME280;19885;42.208;24.952;2023-02-20T06:25:48;100277.47;;;12.21;58.01
33554;BME280;19885;42.208;24.952;2023-02-20T06:28:14;100249.63;;;12.21;57.90
33554;BME280;19885;42.208;24.952;2023-02-20T06:30:39;100269.69;;;12.30;58.24
33554;BME280;19885;42.208;24.952;2023-02-20T06:33:05;100278.50;;;12.42;57.00
33554;BME280;19885;42.208;24.952;2023-02-20T06:35:30;100286.38;;;12.47;57.11
33554;BME280;19885;42.208;24.952;2023-02-20T06:37:56;100263.69;;;12.41;57.26
33554;BME280;19885;42.208;24.952;2023-02-20T06:40:21;100269.84;;;12.52;56.26
33554;BME280;19885;42.208;24.952;2023-02-20T06:42:47;100265.50;;;12.59;56.04
33554;BME280;19885;42.208;24.952;2023-02-20T06:45:12;100274.28;;;12.74;55.59
33554;BME280;19885;42.208;24.952;2023-02-20T06:47:40;100276.06;;;12.81;55.51
33554;BME280;19885;42.208;24.952;2023-02-20T06:50:06;100272.63;;;12.85;55.13
33554;BME280;19885;42.208;24.952;2023-02-20T06:52:32;100281.38;;;12.92;54.92
33554;BME280;19885;42.208;24.952;2023-02-20T06:54:57;100270.91;;;13.00;54.43
33554;BME280;19885;42.208;24.952;2023-02-20T06:57:23;100271.81;;;13.03;54.44
33554;BME280;19885;42.208;24.952;2023-02-20T06:59:49;100269.22;;;13.06;54.80
33554;BME280;19885;42.208;24.952;2023-02-20T07:02:15;100239.47;;;12.89;54.22
33554;BME280;19885;42.208;24.952;2023-02-20T07:04:42;100276.25;;;13.21;54.59
33554;BME280;19885;42.208;24.952;2023-02-20T07:07:11;100250.06;;;13.21;54.23
33554;BME280;19885;42.208;24.952;2023-02-20T07:09:36;100277.22;;;13.56;53.58
33554;BME280;19885;42.208;24.952;2023-02-20T07:12:02;100261.50;;;13.92;52.24
33554;BME280;19885;42.208;24.952;2023-02-20T07:14:27;100273.66;;;14.26;51.05
33554;BME280;19885;42.208;24.952;2023-02-20T07:16:53;100262.31;;;14.23;50.54
33554;BME280;19885;42.208;24.952;2023-02-20T07:19:18;100269.31;;;14.42;49.99
33554;BME280;19885;42.208;24.952;2023-02-20T07:21:45;100274.53;;;14.60;49.35
33554;BME280;19885;42.208;24.952;2023-02-20T07:24:11;100275.38;;;14.67;49.32
33554;BME280;19885;42.208;24.952;2023-02-20T07:26:37;100278.78;;;14.90;48.63
33554;BME280;19885;42.208;24.952;2023-02-20T07:29:05;100263.81;;;15.09;47.99
33554;BME280;19885;42.208;24.952;2023-02-20T07:31:31;100276.94;;;15.07;47.37
33554;BME280;19885;42.208;24.952;2023-02-20T07:33:57;100262.91;;;15.11;47.95
33554;BME280;19885;42.208;24.952;2023-02-20T07:36:23;100257.66;;;15.11;47.46
33554;BME280;19885;42.208;24.952;2023-02-20T07:38:57;100180.88;;;14.74;46.66
33554;BME280;19885;42.208;24.952;2023-02-20T07:41:24;100265.47;;;15.26;45.84
33554;BME280;19885;42.208;24.952;2023-02-20T07:43:50;100264.47;;;15.51;45.34
33554;BME280;19885;42.208;24.952;2023-02-20T07:46:16;100249.47;;;15.64;45.31
33554;BME280;19885;42.208;24.952;2023-02-20T07:48:41;100253.72;;;15.82;44.63
33554;BME280;19885;42.208;24.952;2023-02-20T07:51:07;100244.84;;;15.95;43.99
33554;BME280;19885;42.208;24.952;2023-02-20T07:53:32;100262.31;;;16.03;43.28
33554;BME280;19885;42.208;24.952;2023-02-20T07:55:57;100267.63;;;15.96;43.58
33554;BME280;19885;42.208;24.952;2023-02-20T07:58:23;100272.94;;;15.90;43.48
33554;BME280;19885;42.208;24.952;2023-02-20T08:00:49;100265.88;;;15.96;42.69
33554;BME280;19885;42.208;24.952;2023-02-20T08:03:19;100268.38;;;16.10;42.71
33554;BME280;19885;42.208;24.952;2023-02-20T08:05:44;100278.81;;;16.17;42.00
33554;BME280;19885;42.208;24.952;2023-02-20T08:08:10;100292.66;;;16.36;41.51
33554;BME280;19885;42.208;24.952;2023-02-20T08:10:35;100296.94;;;16.48;41.45
33554;BME280;19885;42.208;24.952;2023-02-20T08:13:02;100291.47;;;16.72;42.47
33554;BME280;19885;42.208;24.952;2023-02-20T08:15:28;100292.19;;;16.83;39.63
33554;BME280;19885;42.208;24.952;2023-02-20T08:17:53;100291.91;;;17.05;40.30
33554;BME280;19885;42.208;24.952;2023-02-20T08:20:20;100266.63;;;16.91;39.93
33554;BME280;19885;42.208;24.952;2023-02-20T08:22:48;100270.00;;;17.03;38.95
33554;BME280;19885;42.208;24.952;2023-02-20T08:25:16;100274.34;;;17.04;39.30
33554;BME280;19885;42.208;24.952;2023-02-20T08:27:43;100263.44;;;17.32;39.36
33554;BME280;19885;42.208;24.952;2023-02-20T08:30:15;100292.59;;;17.20;39.02
33554;BME280;19885;42.208;24.952;2023-02-20T08:32:41;100295.41;;;17.07;38.63
33554;BME280;19885;42.208;24.952;2023-02-20T08:35:06;100291.06;;;17.02;38.43
33554;BME280;19885;42.208;24.952;2023-02-20T08:37:32;100272.59;;;17.05;37.93
33554;BME280;19885;42.208;24.952;2023-02-20T08:39:57;100282.16;;;17.10;37.57
33554;BME280;19885;42.208;24.952;2023-02-20T08:42:23;100294.59;;;17.01;37.13
33554;BME280;19885;42.208;24.952;2023-02-20T08:44:48;100285.97;;;16.88;37.01
33554;BME280;19885;42.208;24.952;2023-02-20T08:47:13;100305.09;;;17.02;37.12
33554;BME280;19885;42.208;24.952;2023-02-20T08:49:39;100258.53;;;17.06;36.70
33554;BME280;19885;42.208;24.952;2023-02-20T08:52:05;100305.88;;;17.76;35.45
33554;BME280;19885;42.208;24.952;2023-02-20T08:54:31;100304.03;;;17.81;36.33
33554;BME280;19885;42.208;24.952;2023-02-20T08:56:57;100290.97;;;17.73;34.75
33554;BME280;19885;42.208;24.952;2023-02-20T08:59:22;100311.22;;;17.70;34.66
33554;BME280;19885;42.208;24.952;2023-02-20T09:01:47;100243.84;;;17.49;34.43
33554;BME280;19885;42.208;24.952;2023-02-20T09:04:13;100319.13;;;17.70;34.55
33554;BME280;19885;42.208;24.952;2023-02-20T09:06:39;100305.03;;;17.72;33.49
33554;BME280;19885;42.208;24.952;2023-02-20T09:09:05;100303.75;;;17.98;32.83
33554;BME280;19885;42.208;24.952;2023-02-20T09:11:30;100277.31;;;18.02;32.62
33554;BME280;19885;42.208;24.952;2023-02-20T09:13:56;100261.78;;;17.84;32.02
33554;BME280;19885;42.208;24.952;2023-02-20T09:16:23;100299.56;;;18.36;31.37
33554;BME280;19885;42.208;24.952;2023-02-20T09:18:49;100300.69;;;18.22;30.95
33554;BME280;19885;42.208;24.952;2023-02-20T09:21:18;100269.03;;;18.23;31.41
33554;BME280;19885;42.208;24.952;2023-02-20T09:23:44;100300.78;;;18.19;31.48
33554;BME280;19885;42.208;24.952;2023-02-20T09:26:09;100264.97;;;18.04;32.39
33554;BME280;19885;42.208;24.952;2023-02-20T09:28:35;100290.06;;;18.26;31.01
33554;BME280;19885;42.208;24.952;2023-02-20T09:31:00;100297.91;;;18.32;30.39
33554;BME280;19885;42.208;24.952;2023-02-20T09:33:27;100233.47;;;17.95;30.55
33554;BME280;19885;42.208;24.952;2023-02-20T09:35:53;100293.19;;;18.51;29.85
33554;BME280;19885;42.208;24.952;2023-02-20T09:38:22;100272.88;;;18.55;29.32
33554;BME280;19885;42.208;24.952;2023-02-20T09:40:53;100223.56;;;18.09;28.20
33554;BME280;19885;42.208;24.952;2023-02-20T09:44:24;100282.06;;;18.32;27.84
33554;BME280;19885;42.208;24.952;2023-02-20T09:46:29;100256.47;;;18.36;28.50
33554;BME280;19885;42.208;24.952;2023-02-20T09:51:37;100265.13;;;18.45;27.19
33554;BME280;19885;42.208;24.952;2023-02-20T09:54:09;100278.09;;;18.58;26.91
33554;BME280;19885;42.208;24.952;2023-02-20T09:56:48;100269.09;;;18.68;26.56
33554;BME280;19885;42.208;24.952;2023-02-20T10:02:19;100262.75;;;18.78;25.66
33554;BME280;19885;42.208;24.952;2023-02-20T10:04:49;100269.78;;;18.77;25.21
33554;BME280;19885;42.208;24.952;2023-02-20T10:07:27;100274.19;;;18.78;24.06
33554;BME280;19885;42.208;24.952;2023-02-20T10:09:54;100278.50;;;18.82;25.57
33554;BME280;19885;42.208;24.952;2023-02-20T10:12:40;100278.34;;;18.90;24.21
33554;BME280;19885;42.208;24.952;2023-02-20T10:15:41;100301.16;;;18.92;25.73
33554;BME280;19885;42.208;24.952;2023-02-20T10:18:22;100280.22;;;18.83;24.95
33554;BME280;19885;42.208;24.952;2023-02-20T10:21:24;100293.50;;;18.79;24.70
33554;BME280;19885;42.208;24.952;2023-02-20T10:24:29;100292.13;;;19.04;24.80
33554;BME280;19885;42.208;24.952;2023-02-20T10:27:15;100276.41;;;18.98;24.37
33554;BME280;19885;42.208;24.952;2023-02-20T10:29:43;100216.72;;;18.46;25.90
33554;BME280;19885;42.208;24.952;2023-02-20T10:32:13;100283.81;;;18.79;25.26
33554;BME280;19885;42.208;24.952;2023-02-20T10:34:56;100284.66;;;18.83;25.58
33554;BME280;19885;42.208;24.952;2023-02-20T10:37:28;100271.81;;;19.06;25.84
33554;BME280;19885;42.208;24.952;2023-02-20T10:40:01;100260.31;;;19.08;24.72
33554;BME280;19885;42.208;24.952;2023-02-20T10:42:35;100275.75;;;18.87;24.63
33554;BME280;19885;42.208;24.952;2023-02-20T10:45:23;100274.66;;;18.97;23.65
33554;BME280;19885;42.208;24.952;2023-02-20T10:48:12;100260.50;;;18.99;24.76
33554;BME280;19885;42.208;24.952;2023-02-20T10:53:20;100258.34;;;19.18;24.00
33554;BME280;19885;42.208;24.952;2023-02-20T10:55:58;100271.56;;;19.18;23.87
33554;BME280;19885;42.208;24.952;2023-02-20T10:58:41;100268.34;;;19.04;23.99
33554;BME280;19885;42.208;24.952;2023-02-20T11:01:11;100267.69;;;18.94;24.08
33554;BME280;19885;42.208;24.952;2023-02-20T11:03:46;100258.75;;;19.00;23.17
33554;BME280;19885;42.208;24.952;2023-02-20T11:06:16;100260.06;;;19.20;24.05
33554;BME280;19885;42.208;24.952;2023-02-20T11:08:43;100255.75;;;19.16;23.87
33554;BME280;19885;42.208;24.952;2023-02-20T11:13:49;100232.84;;;19.17;23.74
33554;BME280;19885;42.208;24.952;2023-02-20T11:16:31;100252.47;;;19.45;23.63
33554;BME280;19885;42.208;24.952;2023-02-20T11:19:45;100252.03;;;19.25;22.93
33554;BME280;19885;42.208;24.952;2023-02-20T11:22:12;100242.94;;;19.38;23.89
33554;BME280;19885;42.208;24.952;2023-02-20T11:24:40;100249.06;;;19.40;22.47
33554;BME280;19885;42.208;24.952;2023-02-20T11:27:26;100242.13;;;19.35;21.95
33554;BME280;19885;42.208;24.952;2023-02-20T11:30:32;100244.53;;;19.45;23.35
33554;BME280;19885;42.208;24.952;2023-02-20T11:35:44;100252.22;;;19.56;23.62
33554;BME280;19885;42.208;24.952;2023-02-20T11:40:45;100244.06;;;19.66;22.96
33554;BME280;19885;42.208;24.952;2023-02-20T11:45:40;100243.34;;;19.58;22.53
33554;BME280;19885;42.208;24.952;2023-02-20T11:53:23;100218.16;;;19.42;22.68
33554;BME280;19885;42.208;24.952;2023-02-20T11:56:12;100263.66;;;19.56;23.31
33554;BME280;19885;42.208;24.952;2023-02-20T11:58:36;100200.81;;;19.29;22.59
33554;BME280;19885;42.208;24.952;2023-02-20T12:01:02;100254.63;;;19.66;22.82
33554;BME280;19885;42.208;24.952;2023-02-20T12:03:29;100199.38;;;19.16;21.92
33554;BME280;19885;42.208;24.952;2023-02-20T12:05:57;100250.94;;;19.34;21.89
33554;BME280;19885;42.208;24.952;2023-02-20T12:08:35;100250.59;;;19.50;23.09
33554;BME280;19885;42.208;24.952;2023-02-20T12:11:18;100205.53;;;19.16;22.98
33554;BME280;19885;42.208;24.952;2023-02-20T12:13:47;100264.13;;;19.37;22.63
33554;BME280;19885;42.208;24.952;2023-02-20T12:19:15;100261.94;;;19.55;22.27
33554;BME280;19885;42.208;24.952;2023-02-20T12:26:52;100244.47;;;19.48;22.42
33554;BME280;19885;42.208;24.952;2023-02-20T12:29:58;100233.97;;;19.45;22.91
33554;BME280;19885;42.208;24.952;2023-02-20T12:40:36;100241.97;;;19.42;22.72
33554;BME280;19885;42.208;24.952;2023-02-20T12:45:42;100249.28;;;19.30;22.68
33554;BME280;19885;42.208;24.952;2023-02-20T12:48:43;100253.84;;;19.23;23.35
33554;BME280;19885;42.208;24.952;2023-02-20T12:53:58;100235.09;;;19.34;23.52
33554;BME280;19885;42.208;24.952;2023-02-20T12:56:53;100240.88;;;19.12;23.03
33554;BME280;19885;42.208;24.952;2023-02-20T13:02:28;100215.91;;;19.26;23.92
33554;BME280;19885;42.208;24.952;2023-02-20T13:04:59;100236.91;;;19.32;22.97
33554;BME280;19885;42.208;24.952;2023-02-20T13:07:35;100165.50;;;18.95;22.32
33554;BME280;19885;42.208;24.952;2023-02-20T13:10:15;100235.19;;;19.31;22.42
33554;BME280;19885;42.208;24.952;2023-02-20T13:12:42;100238.59;;;19.36;23.32
33554;BME280;19885;42.208;24.952;2023-02-20T13:15:32;100192.81;;;18.95;22.72
33554;BME280;19885;42.208;24.952;2023-02-20T13:18:40;100259.13;;;19.23;23.63
33554;BME280;19885;42.208;24.952;2023-02-20T13:21:13;100249.44;;;19.23;23.29
33554;BME280;19885;42.208;24.952;2023-02-20T13:23:39;100253.03;;;19.19;23.42
33554;BME280;19885;42.208;24.952;2023-02-20T13:28:51;100253.78;;;19.24;24.09
33554;BME280;19885;42.208;24.952;2023-02-20T13:31:21;100274.25;;;19.15;21.84
33554;BME280;19885;42.208;24.952;2023-02-20T13:33:51;100275.97;;;19.17;20.86
33554;BME280;19885;42.208;24.952;2023-02-20T13:36:44;100274.25;;;19.16;19.97
33554;BME280;19885;42.208;24.952;2023-02-20T13:39:36;100276.13;;;19.11;19.12
33554;BME280;19885;42.208;24.952;2023-02-20T13:42:24;100275.13;;;19.17;20.74
33554;BME280;19885;42.208;24.952;2023-02-20T13:44:49;100274.00;;;19.27;20.13
33554;BME280;19885;42.208;24.952;2023-02-20T13:55:19;100282.19;;;19.15;19.22
33554;BME280;19885;42.208;24.952;2023-02-20T14:02:53;100270.78;;;19.14;18.43
33554;BME280;19885;42.208;24.952;2023-02-20T14:05:24;100274.25;;;19.16;19.29
33554;BME280;19885;42.208;24.952;2023-02-20T14:07:50;100264.63;;;19.14;19.12
33554;BME280;19885;42.208;24.952;2023-02-20T14:12:41;100275.63;;;18.93;19.93
33554;BME280;19885;42.208;24.952;2023-02-20T14:15:08;100275.63;;;18.93;18.87
33554;BME280;19885;42.208;24.952;2023-02-20T14:17:34;100284.56;;;18.86;18.70
33554;BME280;19885;42.208;24.952;2023-02-20T14:20:06;100281.41;;;18.69;18.40
33554;BME280;19885;42.208;24.952;2023-02-20T14:22:40;100272.00;;;18.54;19.20
33554;BME280;19885;42.208;24.952;2023-02-20T14:25:23;100270.28;;;18.53;19.59
33554;BME280;19885;42.208;24.952;2023-02-20T14:27:49;100284.44;;;18.47;19.01
33554;BME280;19885;42.208;24.952;2023-02-20T14:32:43;100275.94;;;18.29;18.48
33554;BME280;19885;42.208;24.952;2023-02-20T14:35:15;100280.44;;;18.25;20.01